Time;durP1;ratioP1;P1;durP2;ratioP2;P2;SDS_P1;SDS_P2;PMS_P1;PMS_P2;Temp;Humidity;BMP_temperature;BMP_pressure;BME280_temperature;BME280_humidity;BME280_pressure;Samples;Min_cycle;Max_cycle;Signal;HPM_P1;HPM_P2
2022/08/16 00:01:04;;;;;;;25.90;23.20;;;;;;;;;;5050059;28;20167;-60
2022/08/16 00:03:31;;;;;;;27.10;24.20;;;;;;;;;;5049658;28;20057;-61
2022/08/16 00:05:57;;;;;;;24.70;21.00;;;;;;;;;;5050203;28;20049;-61
2022/08/16 00:08:23;;;;;;;25.30;22.80;;;;;;;;;;5049667;28;20052;-61
2022/08/16 00:10:49;;;;;;;27.70;24.80;;;;;;;;;;5049985;28;20044;-60
2022/08/16 00:13:15;;;;;;;25.43;22.73;;;;;;;;;;5049330;28;20053;-61
2022/08/16 00:15:43;;;;;;;24.20;21.67;;;;;;;;;;5050218;28;20051;-60
2022/08/16 00:18:10;;;;;;;27.23;22.37;;;;;;;;;;5049019;28;20045;-61
2022/08/16 00:20:38;;;;;;;27.37;23.30;;;;;;;;;;5049829;28;20041;-61
2022/08/16 00:23:04;;;;;;;24.50;21.87;;;;;;;;;;5049778;28;20049;-60
2022/08/16 00:25:30;;;;;;;25.03;22.57;;;;;;;;;;5049536;28;20167;-60
2022/08/16 00:27:56;;;;;;;26.00;20.73;;;;;;;;;;5049104;28;20040;-60
2022/08/16 00:30:22;;;;;;;25.67;22.63;;;;;;;;;;5049287;28;20076;-60
2022/08/16 00:32:50;;;;;;;22.73;20.43;;;;;;;;;;5049165;28;20551;-60
2022/08/16 00:35:18;;;;;;;25.50;21.43;;;;;;;;;;5048800;28;20045;-61
2022/08/16 00:37:45;;;;;;;25.77;20.13;;;;;;;;;;5049507;28;20045;-60
2022/08/16 00:40:13;;;;;;;26.27;21.43;;;;;;;;;;5049100;28;20044;-61
2022/08/16 00:42:39;;;;;;;23.57;21.17;;;;;;;;;;5049502;28;20049;-61
2022/08/16 00:45:08;;;;;;;23.80;20.70;;;;;;;;;;5049006;28;20131;-60
2022/08/16 00:47:35;;;;;;;26.07;21.17;;;;;;;;;;5048905;28;20041;-60
2022/08/16 00:50:01;;;;;;;25.53;22.23;;;;;;;;;;5048615;28;20048;-61
2022/08/16 00:52:27;;;;;;;23.13;20.73;;;;;;;;;;5049278;28;20040;-61
2022/08/16 00:54:53;;;;;;;25.10;21.77;;;;;;;;;;5048849;28;20088;-61
2022/08/16 00:57:19;;;;;;;26.43;23.60;;;;;;;;;;5049146;28;20067;-61
2022/08/16 00:59:45;;;;;;;23.97;21.43;;;;;;;;;;5048944;28;20049;-60
2022/08/16 01:02:12;;;;;;;30.00;22.00;;;;;;;;;;5048833;28;20053;-61
2022/08/16 01:04:38;;;;;;;22.13;19.83;;;;;;;;;;5049319;28;20045;-61
2022/08/16 01:07:05;;;;;;;24.17;21.67;;;;;;;;;;5048225;28;20037;-61
2022/08/16 01:09:32;;;;;;;25.57;21.20;;;;;;;;;;5048770;28;20064;-61
2022/08/16 01:11:59;;;;;;;23.37;20.97;;;;;;;;;;5048889;28;20049;-61
2022/08/16 01:14:31;;;;;;;23.80;20.07;;;;;;;;;;5048987;28;20052;-61
2022/08/16 01:16:57;;;;;;;22.40;20.00;;;;;;;;;;5049396;28;20478;-60
2022/08/16 01:19:27;;;;;;;21.80;19.03;;;;;;;;;;5048137;28;20049;-60
2022/08/16 01:22:03;;;;;;;20.13;17.67;;;;;;;;;;5048755;28;20041;-61
2022/08/16 01:24:35;;;;;;;18.67;16.50;;;;;;;;;;5048888;28;20510;-61
2022/08/16 01:27:09;;;;;;;24.13;19.97;;;;;;;;;;5048372;28;20048;-61
2022/08/16 01:29:39;;;;;;;22.77;19.27;;;;;;;;;;5049382;28;20056;-60
2022/08/16 01:32:05;;;;;;;21.87;19.57;;;;;;;;;;5048453;28;20084;-61
2022/08/16 01:34:31;;;;;;;21.47;19.20;;;;;;;;;;5048730;28;20052;-61
2022/08/16 01:37:08;;;;;;;24.30;20.47;;;;;;;;;;5048707;28;20056;-61
2022/08/16 01:39:34;;;;;;;27.17;23.43;;;;;;;;;;5048480;28;20041;-60
2022/08/16 01:42:00;;;;;;;25.60;20.77;;;;;;;;;;5048134;28;20084;-61
2022/08/16 01:44:27;;;;;;;23.70;20.73;;;;;;;;;;5048372;28;20125;-60
2022/08/16 01:46:55;;;;;;;22.90;20.13;;;;;;;;;;5048028;28;20086;-61
2022/08/16 01:49:21;;;;;;;26.90;21.90;;;;;;;;;;5048245;28;20183;-61
2022/08/16 01:52:03;;;;;;;31.10;23.37;;;;;;;;;;5048380;28;20052;-60
2022/08/16 01:54:29;;;;;;;23.70;19.43;;;;;;;;;;5048467;28;20060;-61
2022/08/16 01:56:56;;;;;;;23.50;20.03;;;;;;;;;;5048414;28;20502;-60
2022/08/16 01:59:22;;;;;;;23.07;20.63;;;;;;;;;;5048622;28;20048;-61
2022/08/16 02:01:49;;;;;;;25.03;20.60;;;;;;;;;;5047727;28;20074;-60
2022/08/16 02:04:15;;;;;;;24.17;21.33;;;;;;;;;;5048698;28;20048;-61
2022/08/16 02:06:42;;;;;;;25.53;20.60;;;;;;;;;;5048297;28;20632;-60
2022/08/16 02:09:09;;;;;;;23.27;20.00;;;;;;;;;;5048630;28;20415;-61
2022/08/16 02:11:40;;;;;;;25.77;22.43;;;;;;;;;;5048427;28;20418;-61
2022/08/16 02:14:06;;;;;;;25.13;22.43;;;;;;;;;;5048454;28;20048;-62
2022/08/16 02:16:32;;;;;;;31.17;23.23;;;;;;;;;;5047683;28;20388;-61
2022/08/16 02:18:59;;;;;;;25.80;23.03;;;;;;;;;;5048732;28;20037;-61
2022/08/16 02:21:25;;;;;;;28.60;24.23;;;;;;;;;;5051764;28;20051;-61
2022/08/16 02:23:51;;;;;;;29.67;24.23;;;;;;;;;;5052073;28;20041;-61
2022/08/16 02:26:17;;;;;;;28.70;25.40;;;;;;;;;;5051729;28;20051;-61
2022/08/16 02:28:43;;;;;;;28.43;24.47;;;;;;;;;;5051219;28;20044;-61
2022/08/16 02:31:12;;;;;;;29.07;25.97;;;;;;;;;;5051376;28;20041;-61
2022/08/16 02:33:38;;;;;;;29.87;26.13;;;;;;;;;;5051538;28;20040;-61
2022/08/16 02:36:05;;;;;;;31.27;26.27;;;;;;;;;;5051854;28;20045;-60
2022/08/16 02:38:32;;;;;;;29.97;25.40;;;;;;;;;;5051626;28;20122;-61
2022/08/16 02:40:59;;;;;;;31.90;27.03;;;;;;;;;;5051080;28;20090;-61
2022/08/16 02:43:26;;;;;;;29.37;26.17;;;;;;;;;;5051733;28;20092;-60
2022/08/16 02:45:52;;;;;;;35.63;26.53;;;;;;;;;;5051234;28;20048;-61
2022/08/16 02:48:18;;;;;;;31.17;25.83;;;;;;;;;;5051509;28;20072;-61
2022/08/16 02:50:44;;;;;;;32.73;26.67;;;;;;;;;;5049865;28;20059;-61
2022/08/16 02:53:10;;;;;;;27.97;24.87;;;;;;;;;;5051056;28;20071;-61
2022/08/16 02:55:36;;;;;;;36.77;27.53;;;;;;;;;;5051202;28;20072;-61
2022/08/16 02:58:04;;;;;;;29.73;25.20;;;;;;;;;;5051557;28;20044;-61
2022/08/16 03:00:30;;;;;;;30.67;25.77;;;;;;;;;;5051003;28;20418;-61
2022/08/16 03:02:57;;;;;;;33.67;26.93;;;;;;;;;;5051107;28;20095;-61
2022/08/16 03:05:23;;;;;;;28.47;25.37;;;;;;;;;;5050949;28;20048;-61
2022/08/16 03:07:51;;;;;;;29.23;23.87;;;;;;;;;;5051422;28;20049;-61
2022/08/16 03:10:18;;;;;;;30.63;24.73;;;;;;;;;;5050764;28;20636;-61
2022/08/16 03:12:48;;;;;;;27.90;23.43;;;;;;;;;;5050764;28;20526;-61
2022/08/16 03:15:14;;;;;;;35.10;26.47;;;;;;;;;;5050465;28;20053;-60
2022/08/16 03:17:41;;;;;;;31.97;26.27;;;;;;;;;;5051282;28;20049;-61
2022/08/16 03:20:08;;;;;;;32.37;26.40;;;;;;;;;;5050675;28;20041;-61
2022/08/16 03:22:35;;;;;;;29.27;24.80;;;;;;;;;;5050988;28;20053;-61
2022/08/16 03:25:04;;;;;;;29.67;24.80;;;;;;;;;;5050073;28;20040;-60
2022/08/16 03:27:31;;;;;;;27.40;23.50;;;;;;;;;;5050898;28;20045;-61
2022/08/16 03:29:58;;;;;;;31.13;25.97;;;;;;;;;;5050313;28;20041;-61
2022/08/16 03:32:24;;;;;;;31.83;25.93;;;;;;;;;;5050461;28;20044;-61
2022/08/16 03:34:50;;;;;;;34.90;27.53;;;;;;;;;;5048540;28;20557;-61
2022/08/16 03:37:17;;;;;;;40.93;28.50;;;;;;;;;;5050694;28;20055;-61
2022/08/16 03:39:43;;;;;;;33.47;25.80;;;;;;;;;;5050462;28;20045;-61
2022/08/16 03:42:09;;;;;;;30.97;26.83;;;;;;;;;;5050266;28;20106;-61
2022/08/16 03:44:35;;;;;;;36.33;27.43;;;;;;;;;;5050453;28;20132;-61
2022/08/16 03:47:01;;;;;;;36.50;29.03;;;;;;;;;;5049834;28;20053;-60
2022/08/16 03:49:27;;;;;;;32.87;27.20;;;;;;;;;;5050076;28;20048;-61
2022/08/16 03:51:53;;;;;;;31.33;27.57;;;;;;;;;;5050210;28;20407;-61
2022/08/16 03:54:20;;;;;;;36.50;28.60;;;;;;;;;;5049514;28;20053;-61
2022/08/16 03:56:46;;;;;;;37.23;29.70;;;;;;;;;;5050242;28;20045;-61
2022/08/16 03:59:13;;;;;;;38.73;30.13;;;;;;;;;;5050111;28;20053;-61
2022/08/16 04:01:39;;;;;;;40.53;30.67;;;;;;;;;;5049429;28;20075;-61
2022/08/16 04:04:06;;;;;;;36.07;30.53;;;;;;;;;;5049745;28;21053;-61
2022/08/16 04:06:32;;;;;;;37.47;30.07;;;;;;;;;;5048340;28;20049;-61
2022/08/16 04:08:58;;;;;;;32.27;25.03;;;;;;;;;;5048624;28;20073;-61
2022/08/16 04:11:24;;;;;;;33.07;29.03;;;;;;;;;;5048948;28;20415;-62
2022/08/16 04:13:50;;;;;;;39.37;30.37;;;;;;;;;;5049048;28;20037;-62
2022/08/16 04:16:16;;;;;;;25.67;22.13;;;;;;;;;;5047021;28;20052;-61
2022/08/16 04:18:43;;;;;;;35.33;29.30;;;;;;;;;;5048917;28;20044;-61
2022/08/16 04:21:10;;;;;;;28.27;24.37;;;;;;;;;;5048286;28;20041;-62
2022/08/16 04:23:37;;;;;;;32.37;27.07;;;;;;;;;;5048737;28;20045;-61
2022/08/16 04:26:05;;;;;;;31.40;27.30;;;;;;;;;;5049597;28;20453;-62
2022/08/16 04:28:31;;;;;;;30.60;26.87;;;;;;;;;;5048578;28;20044;-61
2022/08/16 04:30:57;;;;;;;31.77;27.37;;;;;;;;;;5048753;28;20048;-62
2022/08/16 04:33:24;;;;;;;32.20;27.83;;;;;;;;;;5046808;28;20037;-62
2022/08/16 04:35:50;;;;;;;28.63;24.33;;;;;;;;;;5048713;28;20399;-62
2022/08/16 04:38:18;;;;;;;25.90;23.07;;;;;;;;;;5048119;28;20071;-62
2022/08/16 04:40:45;;;;;;;30.50;26.97;;;;;;;;;;5046864;28;20124;-62
2022/08/16 04:43:11;;;;;;;30.97;27.70;;;;;;;;;;5048187;28;20040;-62
2022/08/16 04:45:38;;;;;;;34.57;27.97;;;;;;;;;;5048578;28;20074;-62
2022/08/16 04:48:04;;;;;;;28.07;23.90;;;;;;;;;;5047023;28;20045;-62
2022/08/16 04:50:31;;;;;;;35.80;27.37;;;;;;;;;;5047402;28;20041;-62
2022/08/16 04:52:57;;;;;;;34.03;25.20;;;;;;;;;;5046709;28;20044;-62
2022/08/16 04:55:24;;;;;;;33.70;30.00;;;;;;;;;;5047373;28;20475;-62
2022/08/16 04:57:52;;;;;;;29.73;24.70;;;;;;;;;;5047976;28;20391;-62
2022/08/16 05:00:21;;;;;;;28.63;24.30;;;;;;;;;;5048051;28;20041;-62
2022/08/16 05:02:49;;;;;;;31.67;25.80;;;;;;;;;;5048064;28;20048;-62
2022/08/16 05:05:15;;;;;;;28.20;24.93;;;;;;;;;;5047216;28;20076;-62
2022/08/16 05:07:41;;;;;;;28.40;25.47;;;;;;;;;;5047374;28;20052;-62
2022/08/16 05:10:08;;;;;;;33.97;27.53;;;;;;;;;;5046844;28;20110;-62
2022/08/16 05:12:35;;;;;;;24.70;21.90;;;;;;;;;;5048034;28;20144;-62
2022/08/16 05:15:02;;;;;;;30.30;27.00;;;;;;;;;;5046988;28;20051;-63
2022/08/16 05:17:28;;;;;;;34.00;25.83;;;;;;;;;;5048049;28;20079;-62
2022/08/16 05:19:54;;;;;;;26.83;23.17;;;;;;;;;;5047598;28;20056;-62
2022/08/16 05:22:20;;;;;;;26.50;23.67;;;;;;;;;;5046463;28;20389;-61
2022/08/16 05:24:46;;;;;;;24.83;20.73;;;;;;;;;;5045950;28;20080;-62
2022/08/16 05:27:12;;;;;;;25.57;23.03;;;;;;;;;;5047729;28;20577;-63
2022/08/16 05:29:38;;;;;;;21.87;19.53;;;;;;;;;;5047050;28;20057;-62
2022/08/16 05:32:05;;;;;;;25.60;20.83;;;;;;;;;;5047510;28;20037;-62
2022/08/16 05:34:31;;;;;;;23.60;20.93;;;;;;;;;;5047311;28;20041;-62
2022/08/16 05:36:57;;;;;;;24.07;21.33;;;;;;;;;;5047650;28;20468;-62
2022/08/16 05:39:25;;;;;;;24.43;21.93;;;;;;;;;;5047562;28;20419;-62
2022/08/16 05:41:52;;;;;;;26.27;20.20;;;;;;;;;;5047600;28;20048;-62
2022/08/16 05:44:19;;;;;;;25.90;22.30;;;;;;;;;;5046834;28;20491;-61
2022/08/16 05:46:45;;;;;;;26.83;21.30;;;;;;;;;;5046658;28;20045;-61
2022/08/16 05:49:14;;;;;;;26.23;20.00;;;;;;;;;;5047106;28;20132;-62
2022/08/16 05:51:41;;;;;;;23.37;19.93;;;;;;;;;;5047698;28;20056;-62
2022/08/16 05:54:07;;;;;;;24.57;20.53;;;;;;;;;;5048145;28;20037;-62
2022/08/16 05:56:34;;;;;;;23.63;21.23;;;;;;;;;;5048836;28;20130;-62
2022/08/16 05:59:00;;;;;;;23.17;20.67;;;;;;;;;;5049441;28;20044;-62
2022/08/16 06:01:26;;;;;;;25.43;20.97;;;;;;;;;;5051518;28;20041;-62
2022/08/16 06:03:52;;;;;;;26.57;22.27;;;;;;;;;;5050484;28;20080;-62
2022/08/16 06:06:18;;;;;;;25.93;19.60;;;;;;;;;;5052190;28;20041;-62
2022/08/16 06:08:44;;;;;;;20.90;17.00;;;;;;;;;;5051361;28;20457;-62
2022/08/16 06:11:10;;;;;;;24.00;20.60;;;;;;;;;;5051884;28;20478;-62
2022/08/16 06:13:36;;;;;;;27.57;20.37;;;;;;;;;;5052390;28;20053;-62
2022/08/16 06:16:04;;;;;;;21.97;18.73;;;;;;;;;;5051583;28;20041;-61
2022/08/16 06:18:30;;;;;;;26.30;20.40;;;;;;;;;;5051464;28;20055;-62
2022/08/16 06:20:56;;;;;;;22.43;18.97;;;;;;;;;;5050939;28;20052;-61
2022/08/16 06:23:25;;;;;;;23.37;20.20;;;;;;;;;;5031338;28;20061;-61
2022/08/16 06:25:51;;;;;;;26.30;20.50;;;;;;;;;;5031276;28;20057;-62
2022/08/16 06:28:17;;;;;;;20.50;17.90;;;;;;;;;;5046852;28;20041;-62
2022/08/16 06:30:43;;;;;;;25.97;21.30;;;;;;;;;;5051002;28;20048;-61
2022/08/16 06:33:09;;;;;;;26.87;20.67;;;;;;;;;;5050759;28;20048;-61
2022/08/16 06:35:35;;;;;;;24.47;21.43;;;;;;;;;;5050575;28;20609;-61
2022/08/16 06:38:02;;;;;;;23.40;20.73;;;;;;;;;;5050896;28;20056;-61
2022/08/16 06:40:28;;;;;;;28.67;20.53;;;;;;;;;;5050603;28;20430;-61
2022/08/16 06:42:55;;;;;;;22.30;19.87;;;;;;;;;;5050729;28;20183;-61
2022/08/16 06:45:21;;;;;;;22.47;19.33;;;;;;;;;;5051834;28;20049;-61
2022/08/16 06:47:47;;;;;;;23.27;20.53;;;;;;;;;;5059226;28;20041;-61
2022/08/16 06:50:13;;;;;;;23.57;20.70;;;;;;;;;;5070482;28;20048;-61
2022/08/16 06:52:39;;;;;;;24.13;18.93;;;;;;;;;;5070398;28;20049;-61
2022/08/16 06:55:06;;;;;;;21.93;19.60;;;;;;;;;;5070320;28;20037;-60
2022/08/16 06:57:32;;;;;;;23.90;20.07;;;;;;;;;;5059732;28;20052;-61
2022/08/16 06:59:58;;;;;;;23.47;19.50;;;;;;;;;;5041104;28;20048;-61
2022/08/16 07:02:24;;;;;;;23.80;21.27;;;;;;;;;;5048013;28;20055;-61
2022/08/16 07:04:51;;;;;;;25.73;21.13;;;;;;;;;;5038418;28;20870;-60
2022/08/16 07:07:18;;;;;;;24.50;22.10;;;;;;;;;;5043584;28;20523;-61
2022/08/16 07:09:44;;;;;;;25.93;21.90;;;;;;;;;;5038071;28;20057;-60
2022/08/16 07:12:10;;;;;;;22.70;20.37;;;;;;;;;;5050420;28;20053;-61
2022/08/16 07:14:36;;;;;;;20.47;18.17;;;;;;;;;;5032858;28;20049;-61
2022/08/16 07:17:02;;;;;;;21.57;18.13;;;;;;;;;;5035052;28;20038;-61
2022/08/16 07:19:31;;;;;;;25.27;21.43;;;;;;;;;;5043795;28;20041;-61
2022/08/16 07:21:57;;;;;;;26.80;21.30;;;;;;;;;;5039273;28;20088;-61
2022/08/16 07:24:23;;;;;;;24.60;21.90;;;;;;;;;;5049118;28;20045;-60
2022/08/16 07:26:49;;;;;;;23.80;20.53;;;;;;;;;;5049010;28;20045;-60
2022/08/16 07:29:15;;;;;;;27.73;21.37;;;;;;;;;;5047585;28;20510;-60
2022/08/16 07:31:41;;;;;;;24.87;21.83;;;;;;;;;;5048707;28;20135;-60
2022/08/16 07:34:07;;;;;;;24.80;22.17;;;;;;;;;;5044148;28;20365;-60
2022/08/16 07:36:34;;;;;;;24.33;21.73;;;;;;;;;;5030454;28;20045;-60
2022/08/16 07:39:00;;;;;;;25.10;22.50;;;;;;;;;;5049257;28;20053;-60
2022/08/16 07:41:26;;;;;;;23.63;21.13;;;;;;;;;;5048938;28;20448;-60
2022/08/16 07:43:52;;;;;;;24.47;21.80;;;;;;;;;;5049774;28;20045;-60
2022/08/16 07:46:18;;;;;;;28.17;22.07;;;;;;;;;;5045463;28;20094;-59
2022/08/16 07:48:44;;;;;;;25.03;22.43;;;;;;;;;;5036618;28;20446;-60
2022/08/16 07:51:10;;;;;;;25.53;22.03;;;;;;;;;;5048227;28;20399;-60
2022/08/16 07:53:37;;;;;;;25.23;22.57;;;;;;;;;;5042532;28;20145;-59
2022/08/16 07:56:04;;;;;;;28.70;23.47;;;;;;;;;;5043682;28;20079;-60
2022/08/16 07:58:30;;;;;;;24.93;22.27;;;;;;;;;;5041474;28;20053;-60
2022/08/16 08:00:56;;;;;;;30.77;22.47;;;;;;;;;;5031105;28;20069;-60
2022/08/16 08:03:22;;;;;;;25.40;21.47;;;;;;;;;;5048350;28;20135;-60
2022/08/16 08:05:49;;;;;;;22.83;20.57;;;;;;;;;;5032269;28;20045;-60
2022/08/16 08:08:15;;;;;;;23.50;20.40;;;;;;;;;;5038863;28;20047;-60
2022/08/16 08:10:41;;;;;;;24.60;20.47;;;;;;;;;;5048670;28;20103;-60
2022/08/16 08:13:07;;;;;;;23.17;19.60;;;;;;;;;;5047935;28;20534;-60
2022/08/16 08:15:33;;;;;;;21.93;19.63;;;;;;;;;;5047306;28;20052;-60
2022/08/16 08:18:00;;;;;;;22.97;20.10;;;;;;;;;;5047284;28;20503;-60
2022/08/16 08:20:26;;;;;;;22.03;19.63;;;;;;;;;;5047689;28;20059;-60
2022/08/16 08:22:53;;;;;;;25.20;19.33;;;;;;;;;;5047874;28;20048;-60
2022/08/16 08:25:19;;;;;;;18.97;17.00;;;;;;;;;;5047857;28;20418;-60
2022/08/16 08:27:46;;;;;;;20.97;18.40;;;;;;;;;;5048081;28;20095;-60
2022/08/16 08:30:12;;;;;;;19.57;17.57;;;;;;;;;;5047857;28;20094;-60
2022/08/16 08:32:38;;;;;;;21.23;18.15;;;;;;;;;;5048115;28;20123;-61
2022/08/16 08:35:05;;;;;;;20.00;15.88;;;;;;;;;;5047299;28;20052;-61
2022/08/16 08:37:33;;;;;;;17.65;15.60;;;;;;;;;;5046519;28;20114;-61
2022/08/16 08:39:59;;;;;;;22.02;16.20;;;;;;;;;;5047641;28;20586;-60
2022/08/16 08:42:25;;;;;;;20.45;14.80;;;;;;;;;;5047075;28;20140;-60
2022/08/16 08:44:51;;;;;;;16.95;14.50;;;;;;;;;;5047323;28;20123;-61
2022/08/16 08:47:19;;;;;;;16.50;14.88;;;;;;;;;;5046917;28;20095;-60
2022/08/16 08:49:46;;;;;;;19.67;16.65;;;;;;;;;;5047108;28;20083;-61
2022/08/16 08:52:12;;;;;;;16.52;14.70;;;;;;;;;;5047562;28;20048;-60
2022/08/16 08:54:38;;;;;;;19.50;14.85;;;;;;;;;;5047307;28;20044;-61
2022/08/16 08:57:05;;;;;;;18.20;15.52;;;;;;;;;;5047298;28;20545;-61
2022/08/16 08:59:32;;;;;;;15.73;13.75;;;;;;;;;;5047111;28;20044;-61
2022/08/16 09:01:59;;;;;;;15.93;14.27;;;;;;;;;;5047026;28;20041;-60
2022/08/16 09:04:26;;;;;;;19.17;15.68;;;;;;;;;;5045264;28;20523;-60
2022/08/16 09:06:52;;;;;;;17.05;14.90;;;;;;;;;;5047794;28;20047;-61
2022/08/16 09:09:18;;;;;;;16.63;13.60;;;;;;;;;;5045389;28;20055;-60
2022/08/16 09:11:45;;;;;;;15.82;14.32;;;;;;;;;;5028004;28;20046;-60
2022/08/16 09:14:11;;;;;;;19.75;13.70;;;;;;;;;;5044698;28;20076;-60
2022/08/16 09:16:37;;;;;;;16.83;15.02;;;;;;;;;;5036120;28;20099;-61
2022/08/16 09:19:04;;;;;;;16.23;14.73;;;;;;;;;;5027610;28;20113;-61
2022/08/16 09:21:30;;;;;;;15.52;13.02;;;;;;;;;;5026860;28;20103;-61
2022/08/16 09:23:56;;;;;;;15.50;11.98;;;;;;;;;;5026271;28;20085;-60
2022/08/16 09:26:23;;;;;;;12.30;9.48;;;;;;;;;;5037494;28;20052;-61
2022/08/16 09:28:50;;;;;;;11.93;8.65;;;;;;;;;;5048218;28;20055;-62
2022/08/16 09:31:16;;;;;;;9.50;7.80;;;;;;;;;;5045953;28;20465;-61
2022/08/16 09:33:43;;;;;;;9.13;8.13;;;;;;;;;;5049736;28;20052;-62
2022/08/16 09:36:09;;;;;;;14.00;10.38;;;;;;;;;;5035967;28;20045;-62
2022/08/16 09:38:37;;;;;;;10.05;8.93;;;;;;;;;;5033900;28;20041;-62
2022/08/16 09:41:04;;;;;;;12.07;9.35;;;;;;;;;;5050438;28;20045;-62
2022/08/16 09:43:31;;;;;;;10.73;7.97;;;;;;;;;;5051220;28;20053;-60
2022/08/16 09:45:57;;;;;;;9.00;6.80;;;;;;;;;;5036198;28;20547;-60
2022/08/16 09:48:23;;;;;;;7.50;6.70;;;;;;;;;;5040303;28;20267;-60
2022/08/16 09:50:49;;;;;;;8.18;6.57;;;;;;;;;;5049809;28;20044;-61
2022/08/16 09:53:21;;;;;;;9.90;8.88;;;;;;;;;;5051175;28;20063;-61
2022/08/16 09:55:49;;;;;;;9.45;8.52;;;;;;;;;;5047813;28;20049;-61
2022/08/16 09:58:15;;;;;;;7.93;6.40;;;;;;;;;;5035398;28;20053;-61
2022/08/16 10:00:41;;;;;;;9.80;6.10;;;;;;;;;;5031268;28;20499;-61
2022/08/16 10:03:07;;;;;;;10.13;8.00;;;;;;;;;;5047589;28;20049;-61
2022/08/16 10:05:36;;;;;;;8.18;7.38;;;;;;;;;;5040418;28;20041;-60
2022/08/16 10:08:03;;;;;;;11.52;6.55;;;;;;;;;;5050473;28;20534;-60
2022/08/16 10:10:29;;;;;;;12.70;6.70;;;;;;;;;;5050839;28;20057;-61
2022/08/16 10:13:10;;;;;;;9.63;6.35;;;;;;;;;;5031385;28;20053;-60
2022/08/16 10:15:37;;;;;;;7.10;6.15;;;;;;;;;;5031616;28;20096;-61
2022/08/16 10:18:08;;;;;;;8.85;7.05;;;;;;;;;;5030744;28;20511;-60
2022/08/16 10:20:39;;;;;;;9.73;7.55;;;;;;;;;;5030851;28;20045;-61
2022/08/16 10:23:06;;;;;;;10.82;8.38;;;;;;;;;;5032759;28;20096;-61
2022/08/16 10:25:32;;;;;;;10.27;6.47;;;;;;;;;;5051011;28;20456;-61
2022/08/16 10:27:59;;;;;;;12.00;8.30;;;;;;;;;;5050278;28;20408;-61
2022/08/16 10:30:25;;;;;;;12.73;8.68;;;;;;;;;;5030816;28;20057;-61
2022/08/16 10:32:51;;;;;;;12.38;7.40;;;;;;;;;;5030256;28;20044;-61
2022/08/16 10:35:17;;;;;;;14.13;6.35;;;;;;;;;;5030782;28;20408;-61
2022/08/16 10:37:43;;;;;;;10.35;6.82;;;;;;;;;;5029608;28;20085;-61
2022/08/16 10:40:10;;;;;;;6.97;6.22;;;;;;;;;;5030013;28;20041;-61
2022/08/16 10:42:36;;;;;;;9.63;6.18;;;;;;;;;;5030386;28;20052;-61
2022/08/16 10:45:02;;;;;;;8.82;6.40;;;;;;;;;;5030409;28;20050;-61
2022/08/16 10:47:28;;;;;;;8.13;6.63;;;;;;;;;;5030560;28;20045;-61
2022/08/16 10:49:56;;;;;;;6.03;4.97;;;;;;;;;;5030636;28;20052;-61
2022/08/16 10:52:22;;;;;;;7.25;5.60;;;;;;;;;;5030498;28;20768;-61
2022/08/16 10:54:48;;;;;;;6.13;5.47;;;;;;;;;;5030466;28;20049;-61
2022/08/16 10:57:14;;;;;;;7.75;5.40;;;;;;;;;;5031160;28;20041;-61
2022/08/16 10:59:40;;;;;;;5.35;4.70;;;;;;;;;;5034859;28;20037;-61
2022/08/16 11:02:08;;;;;;;7.13;4.85;;;;;;;;;;5050869;28;20045;-61
2022/08/16 11:04:34;;;;;;;8.18;6.07;;;;;;;;;;5051724;28;20048;-61
2022/08/16 11:07:00;;;;;;;8.20;5.68;;;;;;;;;;5060167;28;20041;-61
2022/08/16 11:09:26;;;;;;;9.02;6.22;;;;;;;;;;5049671;28;20056;-61
2022/08/16 11:11:52;;;;;;;8.65;6.05;;;;;;;;;;5050447;28;20099;-61
2022/08/16 11:14:18;;;;;;;9.45;5.85;;;;;;;;;;5049405;28;20048;-61
2022/08/16 11:16:44;;;;;;;8.60;5.97;;;;;;;;;;5050491;28;20076;-61
2022/08/16 11:19:11;;;;;;;10.65;4.85;;;;;;;;;;5050413;28;20079;-61
2022/08/16 11:21:37;;;;;;;7.18;5.75;;;;;;;;;;5050424;28;20094;-61
2022/08/16 11:24:04;;;;;;;7.70;4.82;;;;;;;;;;5050448;28;20037;-61
2022/08/16 11:26:30;;;;;;;8.90;5.40;;;;;;;;;;5050190;28;20037;-61
2022/08/16 11:28:56;;;;;;;8.68;5.05;;;;;;;;;;5050162;28;20045;-61
2022/08/16 11:31:23;;;;;;;9.48;5.43;;;;;;;;;;5050373;28;20514;-62
2022/08/16 11:33:50;;;;;;;5.93;5.03;;;;;;;;;;5050335;28;20048;-62
2022/08/16 11:36:16;;;;;;;10.27;6.72;;;;;;;;;;5049351;28;20590;-61
2022/08/16 11:38:42;;;;;;;9.65;6.25;;;;;;;;;;5050355;28;20044;-61
2022/08/16 11:41:08;;;;;;;9.48;6.07;;;;;;;;;;5049955;28;20135;-61
2022/08/16 11:43:35;;;;;;;8.32;6.70;;;;;;;;;;5049713;28;20540;-61
2022/08/16 11:46:04;;;;;;;7.72;5.82;;;;;;;;;;5049914;28;20076;-61
2022/08/16 11:48:34;;;;;;;9.63;5.05;;;;;;;;;;5049670;28;20485;-61
2022/08/16 11:51:00;;;;;;;11.93;4.55;;;;;;;;;;5048897;28;20037;-61
2022/08/16 11:53:27;;;;;;;6.60;4.20;;;;;;;;;;5048572;28;20064;-61
2022/08/16 11:55:54;;;;;;;6.30;4.35;;;;;;;;;;5044272;28;20513;-61
2022/08/16 11:58:20;;;;;;;6.03;3.88;;;;;;;;;;5049097;28;20110;-61
2022/08/16 12:00:47;;;;;;;7.47;4.20;;;;;;;;;;5048919;28;20037;-61
2022/08/16 12:03:14;;;;;;;5.65;4.30;;;;;;;;;;5048977;28;20079;-61
2022/08/16 12:05:41;;;;;;;5.97;3.78;;;;;;;;;;5048903;28;20654;-61
2022/08/16 12:08:07;;;;;;;5.30;3.97;;;;;;;;;;5048740;28;20102;-61
2022/08/16 12:10:34;;;;;;;5.65;3.58;;;;;;;;;;5047398;28;20058;-61
2022/08/16 12:13:00;;;;;;;4.25;3.17;;;;;;;;;;5027757;28;20343;-61
2022/08/16 12:15:26;;;;;;;4.60;3.05;;;;;;;;;;5041592;28;20041;-61
2022/08/16 12:17:54;;;;;;;6.68;3.03;;;;;;;;;;5047798;28;20419;-61
2022/08/16 12:20:23;;;;;;;4.80;2.72;;;;;;;;;;5047517;28;20060;-61
2022/08/16 12:22:50;;;;;;;3.35;2.50;;;;;;;;;;5047411;28;20052;-61
2022/08/16 12:25:16;;;;;;;4.80;3.22;;;;;;;;;;5045758;28;20447;-61
2022/08/16 12:27:43;;;;;;;5.00;3.00;;;;;;;;;;5046981;28;20044;-61
2022/08/16 12:30:10;;;;;;;4.38;2.97;;;;;;;;;;5047396;28;20414;-61
2022/08/16 12:32:36;;;;;;;8.50;3.55;;;;;;;;;;5047426;28;20032;-61
2022/08/16 12:35:03;;;;;;;4.63;3.08;;;;;;;;;;5048438;28;20047;-61
2022/08/16 12:37:29;;;;;;;4.20;2.80;;;;;;;;;;5047991;28;20049;-61
2022/08/16 12:39:55;;;;;;;4.43;2.83;;;;;;;;;;5048176;28;20041;-61
2022/08/16 12:42:22;;;;;;;6.72;2.60;;;;;;;;;;5048481;28;20045;-62
2022/08/16 12:44:48;;;;;;;6.75;3.33;;;;;;;;;;5048500;28;20072;-61
2022/08/16 12:50:00;;;;;;;7.43;2.80;;;;;;;;;;5048716;28;20709;-61
2022/08/16 12:52:28;;;;;;;5.43;2.83;;;;;;;;;;5049047;28;20408;-61
2022/08/16 12:54:56;;;;;;;5.97;2.50;;;;;;;;;;5048019;28;20133;-61
2022/08/16 12:57:23;;;;;;;6.70;2.30;;;;;;;;;;5047840;28;20045;-61
2022/08/16 12:59:50;;;;;;;7.32;3.17;;;;;;;;;;5048882;28;20051;-61
2022/08/16 13:02:16;;;;;;;4.25;2.90;;;;;;;;;;5044985;28;20134;-62
2022/08/16 13:04:42;;;;;;;5.68;3.05;;;;;;;;;;5047546;28;20080;-62
2022/08/16 13:07:08;;;;;;;6.35;3.42;;;;;;;;;;5048579;28;20127;-61
2022/08/16 13:09:40;;;;;;;5.90;3.35;;;;;;;;;;5045762;28;20053;-61
2022/08/16 13:12:17;;;;;;;7.85;3.53;;;;;;;;;;5042406;28;20534;-61
2022/08/16 13:14:44;;;;;;;5.10;3.38;;;;;;;;;;5031039;28;20043;-61
2022/08/16 13:17:14;;;;;;;5.68;3.55;;;;;;;;;;5048425;28;20041;-61
2022/08/16 13:19:40;;;;;;;6.93;3.50;;;;;;;;;;5048631;28;20041;-62
2022/08/16 13:22:07;;;;;;;5.22;3.25;;;;;;;;;;5047918;28;20059;-61
2022/08/16 13:24:33;;;;;;;6.30;4.22;;;;;;;;;;5048080;28;20044;-62
2022/08/16 13:26:59;;;;;;;6.38;3.42;;;;;;;;;;5048489;28;20053;-61
2022/08/16 13:29:25;;;;;;;8.00;3.53;;;;;;;;;;5048341;28;20051;-62
2022/08/16 13:31:51;;;;;;;8.02;3.25;;;;;;;;;;5047858;28;20082;-61
2022/08/16 13:34:17;;;;;;;6.65;4.05;;;;;;;;;;5048143;28;20132;-61
2022/08/16 13:36:43;;;;;;;5.85;3.90;;;;;;;;;;5048291;28;20041;-62
2022/08/16 13:39:09;;;;;;;5.50;3.72;;;;;;;;;;5048119;28;20528;-61
2022/08/16 13:41:36;;;;;;;6.65;3.03;;;;;;;;;;5047494;28;20410;-62
2022/08/16 13:44:03;;;;;;;6.97;3.53;;;;;;;;;;5047961;28;20048;-61
2022/08/16 13:46:31;;;;;;;4.68;3.85;;;;;;;;;;5048026;28;20758;-61
2022/08/16 13:48:57;;;;;;;5.70;3.45;;;;;;;;;;5048039;28;20118;-61
2022/08/16 13:51:24;;;;;;;5.65;4.00;;;;;;;;;;5047801;28;20186;-61
2022/08/16 13:53:51;;;;;;;7.13;3.83;;;;;;;;;;5047343;28;20049;-62
2022/08/16 13:56:18;;;;;;;5.63;4.00;;;;;;;;;;5047272;28;20100;-62
2022/08/16 13:58:44;;;;;;;8.80;4.05;;;;;;;;;;5047140;28;20049;-62
2022/08/16 14:01:10;;;;;;;6.07;4.32;;;;;;;;;;5045780;28;20073;-61
2022/08/16 14:03:38;;;;;;;8.00;4.38;;;;;;;;;;5047074;28;20141;-62
2022/08/16 14:06:04;;;;;;;5.60;3.90;;;;;;;;;;5047819;28;20045;-62
2022/08/16 14:08:30;;;;;;;5.22;3.55;;;;;;;;;;5047753;28;20063;-61
2022/08/16 14:10:56;;;;;;;6.20;4.20;;;;;;;;;;5047942;28;20079;-61
2022/08/16 14:13:22;;;;;;;7.85;4.25;;;;;;;;;;5047882;28;20110;-62
2022/08/16 14:15:49;;;;;;;6.82;4.00;;;;;;;;;;5049588;28;20407;-62
2022/08/16 14:18:15;;;;;;;7.07;4.25;;;;;;;;;;5051239;28;20135;-62
2022/08/16 14:20:41;;;;;;;6.72;4.70;;;;;;;;;;5051388;28;20060;-61
2022/08/16 14:23:07;;;;;;;8.25;5.00;;;;;;;;;;5051070;28;20052;-62
2022/08/16 14:25:33;;;;;;;6.53;4.97;;;;;;;;;;5051416;28;20040;-62